Time;durP1;ratioP1;P1;durP2;ratioP2;P2;SDS_P1;SDS_P2;PMS_P1;PMS_P2;Temp;Humidity;BMP_temperature;BMP_pressure;BME280_temperature;BME280_humidity;BME280_pressure;Samples;Min_cycle;Max_cycle;Signal;HPM_P1;HPM_P2
2022/07/22 00:00:59;;;;;;;10.63;2.22;;;;;;;;;;4934741;28;20170;-75
2022/07/22 00:03:24;;;;;;;13.80;1.70;;;;;;;;;;4951678;28;20046;-75
2022/07/22 00:05:50;;;;;;;10.18;2.22;;;;;;;;;;4935947;28;20114;-74
2022/07/22 00:08:15;;;;;;;6.15;1.67;;;;;;;;;;4935319;28;20075;-74
2022/07/22 00:10:41;;;;;;;7.57;1.70;;;;;;;;;;4938109;28;20038;-74
2022/07/22 00:13:07;;;;;;;12.52;1.90;;;;;;;;;;4940622;28;20054;-74
2022/07/22 00:15:32;;;;;;;10.40;2.10;;;;;;;;;;4937897;28;20059;-75
2022/07/22 00:17:58;;;;;;;25.55;2.25;;;;;;;;;;4936952;28;20042;-74
2022/07/22 00:20:23;;;;;;;10.95;1.83;;;;;;;;;;4938946;28;20160;-74
2022/07/22 00:22:51;;;;;;;9.48;1.55;;;;;;;;;;4939439;28;20131;-74
2022/07/22 00:25:19;;;;;;;9.77;1.88;;;;;;;;;;4953645;28;20027;-73
2022/07/22 00:27:44;;;;;;;8.20;1.60;;;;;;;;;;4937097;28;20034;-74
2022/07/22 00:30:12;;;;;;;5.70;1.50;;;;;;;;;;4938518;28;20105;-74
2022/07/22 00:32:37;;;;;;;7.38;1.65;;;;;;;;;;4936374;28;20487;-74
2022/07/22 00:35:03;;;;;;;7.78;1.55;;;;;;;;;;4935694;28;20038;-74
2022/07/22 00:37:28;;;;;;;11.80;1.95;;;;;;;;;;4935468;28;20034;-74
2022/07/22 00:39:56;;;;;;;8.10;1.35;;;;;;;;;;4951449;28;20070;-74
2022/07/22 00:42:21;;;;;;;10.88;2.15;;;;;;;;;;4941973;28;21000;-74
2022/07/22 00:44:46;;;;;;;9.15;1.30;;;;;;;;;;4939143;28;20034;-74
2022/07/22 00:47:12;;;;;;;9.77;2.13;;;;;;;;;;4939571;28;20082;-75
2022/07/22 00:49:37;;;;;;;11.20;1.40;;;;;;;;;;4938101;28;20039;-74
2022/07/22 00:52:05;;;;;;;12.07;1.58;;;;;;;;;;4939456;28;20035;-75
2022/07/22 00:54:31;;;;;;;8.95;1.73;;;;;;;;;;4953173;28;20053;-74
2022/07/22 00:56:58;;;;;;;5.93;1.25;;;;;;;;;;4941930;28;20042;-76
2022/07/22 00:59:24;;;;;;;8.35;1.30;;;;;;;;;;4940129;28;20039;-75
2022/07/22 01:01:51;;;;;;;6.45;1.30;;;;;;;;;;4938576;28;20150;-75
2022/07/22 01:04:17;;;;;;;7.40;1.40;;;;;;;;;;4943890;28;20822;-74
2022/07/22 01:06:45;;;;;;;6.13;1.35;;;;;;;;;;4937148;28;20034;-74
2022/07/22 01:09:11;;;;;;;5.57;1.02;;;;;;;;;;4938168;28;20058;-73
2022/07/22 01:11:36;;;;;;;8.50;1.40;;;;;;;;;;4937271;28;22372;-75
2022/07/22 01:14:04;;;;;;;8.85;1.60;;;;;;;;;;4940183;28;20117;-75
2022/07/22 01:16:29;;;;;;;6.13;1.45;;;;;;;;;;4942517;28;20050;-75
2022/07/22 01:18:54;;;;;;;10.07;1.25;;;;;;;;;;4944373;28;20039;-75
2022/07/22 01:21:20;;;;;;;8.43;1.23;;;;;;;;;;4940143;28;20166;-73
2022/07/22 01:23:46;;;;;;;7.30;1.45;;;;;;;;;;4939781;28;20117;-74
2022/07/22 01:26:12;;;;;;;5.78;1.35;;;;;;;;;;4937490;28;20065;-73
2022/07/22 01:28:39;;;;;;;7.57;1.25;;;;;;;;;;4954457;28;20058;-74
2022/07/22 01:31:04;;;;;;;7.40;1.33;;;;;;;;;;4940101;28;20735;-73
2022/07/22 01:33:30;;;;;;;7.00;1.33;;;;;;;;;;4940356;28;20550;-75
2022/07/22 01:35:58;;;;;;;7.70;1.67;;;;;;;;;;4939948;28;20037;-74
2022/07/22 01:38:23;;;;;;;3.88;1.00;;;;;;;;;;4946934;28;20035;-73
2022/07/22 01:40:49;;;;;;;8.18;1.30;;;;;;;;;;4948073;28;20110;-74
2022/07/22 01:43:17;;;;;;;4.32;1.17;;;;;;;;;;4940834;28;20070;-73
2022/07/22 01:45:45;;;;;;;3.88;1.00;;;;;;;;;;4938165;28;20035;-75
2022/07/22 01:48:10;;;;;;;4.22;1.00;;;;;;;;;;4937972;28;20495;-74
2022/07/22 01:50:36;;;;;;;3.55;1.17;;;;;;;;;;4942729;28;20129;-73
2022/07/22 01:53:01;;;;;;;4.00;1.10;;;;;;;;;;4941920;28;20070;-74
2022/07/22 01:55:29;;;;;;;6.45;1.30;;;;;;;;;;4938069;28;22315;-74
2022/07/22 01:57:54;;;;;;;4.97;0.93;;;;;;;;;;4938883;28;20061;-75
2022/07/22 02:00:19;;;;;;;3.00;0.98;;;;;;;;;;4940315;28;20035;-74
2022/07/22 02:02:45;;;;;;;5.90;1.20;;;;;;;;;;4941814;28;20042;-74
2022/07/22 02:05:13;;;;;;;6.85;1.42;;;;;;;;;;4940825;28;20038;-74
2022/07/22 02:07:38;;;;;;;11.15;1.25;;;;;;;;;;4940705;28;20042;-73
2022/07/22 02:10:04;;;;;;;10.40;1.10;;;;;;;;;;4935780;28;20164;-73
2022/07/22 02:12:30;;;;;;;5.25;1.20;;;;;;;;;;4936611;28;20043;-73
2022/07/22 02:14:56;;;;;;;2.28;0.90;;;;;;;;;;4936567;28;20133;-74
2022/07/22 02:17:21;;;;;;;9.05;1.40;;;;;;;;;;4936736;28;20038;-73
2022/07/22 02:19:46;;;;;;;4.40;1.10;;;;;;;;;;4937947;28;20042;-73
2022/07/22 02:22:14;;;;;;;11.35;1.73;;;;;;;;;;4942084;28;20039;-74
2022/07/22 02:24:39;;;;;;;6.75;0.93;;;;;;;;;;4941842;28;20042;-74
2022/07/22 02:27:04;;;;;;;5.97;1.10;;;;;;;;;;4942342;28;20035;-73
2022/07/22 02:29:33;;;;;;;5.10;1.35;;;;;;;;;;4941453;28;20043;-73
2022/07/22 02:32:01;;;;;;;6.15;1.20;;;;;;;;;;4940126;28;20039;-73
2022/07/22 02:34:26;;;;;;;4.63;1.38;;;;;;;;;;4946462;28;20105;-74
2022/07/22 02:36:55;;;;;;;4.63;1.10;;;;;;;;;;4940577;28;20878;-74
2022/07/22 02:39:20;;;;;;;3.30;1.00;;;;;;;;;;4938302;28;20042;-73
2022/07/22 02:41:45;;;;;;;4.15;0.98;;;;;;;;;;4940928;28;20035;-74
2022/07/22 02:44:11;;;;;;;3.15;0.90;;;;;;;;;;4943531;28;20527;-72
2022/07/22 02:46:36;;;;;;;6.43;1.38;;;;;;;;;;4943285;28;20042;-75
2022/07/22 02:49:04;;;;;;;7.82;1.50;;;;;;;;;;4937607;28;20064;-74
2022/07/22 02:51:29;;;;;;;6.53;1.50;;;;;;;;;;4939362;28;20912;-73
2022/07/22 02:53:54;;;;;;;6.25;1.50;;;;;;;;;;4940710;28;20039;-73
2022/07/22 02:56:20;;;;;;;7.20;1.25;;;;;;;;;;4941250;28;20065;-76
2022/07/22 02:58:46;;;;;;;7.07;1.10;;;;;;;;;;4952523;28;20105;-74
2022/07/22 03:01:11;;;;;;;9.55;1.55;;;;;;;;;;4942344;28;20060;-74
2022/07/22 03:03:37;;;;;;;7.43;1.42;;;;;;;;;;4942500;28;20683;-75
2022/07/22 03:06:02;;;;;;;10.05;1.50;;;;;;;;;;4942084;28;20047;-74
2022/07/22 03:08:27;;;;;;;12.05;2.03;;;;;;;;;;4939631;28;20031;-74
2022/07/22 03:10:53;;;;;;;8.93;1.70;;;;;;;;;;4940136;28;20038;-73
2022/07/22 03:13:18;;;;;;;9.90;1.58;;;;;;;;;;4940813;28;20158;-73
2022/07/22 03:15:43;;;;;;;6.63;1.40;;;;;;;;;;4941430;28;20762;-74
2022/07/22 03:18:08;;;;;;;10.18;1.58;;;;;;;;;;4937964;28;20062;-73
2022/07/22 03:20:38;;;;;;;7.13;1.35;;;;;;;;;;4945486;28;20148;-72
2022/07/22 03:23:04;;;;;;;11.13;1.80;;;;;;;;;;4939130;28;20042;-74
2022/07/22 03:25:32;;;;;;;10.15;1.90;;;;;;;;;;4943731;28;20034;-73
2022/07/22 03:27:59;;;;;;;11.68;1.90;;;;;;;;;;4952063;28;20116;-73
2022/07/22 03:30:25;;;;;;;6.95;1.90;;;;;;;;;;4947462;28;20518;-74
2022/07/22 03:32:50;;;;;;;7.90;1.60;;;;;;;;;;4952801;28;20768;-73
2022/07/22 03:35:16;;;;;;;9.73;1.58;;;;;;;;;;4942462;28;20023;-74
2022/07/22 03:37:42;;;;;;;7.15;1.52;;;;;;;;;;4944389;28;20043;-73
2022/07/22 03:40:08;;;;;;;10.00;2.10;;;;;;;;;;4949894;28;20175;-74
2022/07/22 03:42:34;;;;;;;5.32;1.40;;;;;;;;;;4949049;28;20034;-73
2022/07/22 03:44:59;;;;;;;7.53;1.77;;;;;;;;;;4946863;28;20597;-74
2022/07/22 03:47:27;;;;;;;10.15;1.80;;;;;;;;;;4946197;28;20027;-73
2022/07/22 03:49:52;;;;;;;6.43;1.88;;;;;;;;;;4944040;28;20034;-74
2022/07/22 03:52:25;;;;;;;8.52;1.92;;;;;;;;;;4947578;28;20118;-74
2022/07/22 03:54:50;;;;;;;6.53;1.85;;;;;;;;;;4945764;28;20076;-73
2022/07/22 03:57:16;;;;;;;5.47;1.80;;;;;;;;;;4945428;28;20041;-73
2022/07/22 03:59:41;;;;;;;8.18;1.75;;;;;;;;;;4944368;28;20031;-73
2022/07/22 04:02:06;;;;;;;7.03;2.08;;;;;;;;;;4946591;28;20097;-74
2022/07/22 04:04:32;;;;;;;9.18;2.00;;;;;;;;;;4947966;28;20074;-73
2022/07/22 04:06:57;;;;;;;10.00;2.22;;;;;;;;;;4949068;28;21279;-74
2022/07/22 04:09:22;;;;;;;8.00;2.33;;;;;;;;;;4946005;28;20044;-73
2022/07/22 04:11:50;;;;;;;9.55;2.13;;;;;;;;;;4950766;28;20070;-74
2022/07/22 04:14:15;;;;;;;6.00;1.90;;;;;;;;;;4958450;28;20130;-73
2022/07/22 04:16:41;;;;;;;8.25;1.98;;;;;;;;;;4944487;28;20035;-74
2022/07/22 04:19:09;;;;;;;6.72;1.85;;;;;;;;;;4961264;28;20081;-74
2022/07/22 04:21:37;;;;;;;7.07;1.83;;;;;;;;;;4947417;28;20751;-73
2022/07/22 04:24:03;;;;;;;7.88;1.80;;;;;;;;;;4951399;28;20042;-74
2022/07/22 04:26:28;;;;;;;7.90;2.15;;;;;;;;;;4945309;28;20042;-75
2022/07/22 04:28:56;;;;;;;6.63;2.08;;;;;;;;;;4938926;28;20050;-74
2022/07/22 04:31:23;;;;;;;8.95;1.95;;;;;;;;;;4942180;28;20042;-74
2022/07/22 04:33:49;;;;;;;7.75;2.00;;;;;;;;;;4943137;28;20058;-74
2022/07/22 04:36:14;;;;;;;4.75;1.80;;;;;;;;;;4943208;28;20041;-71
2022/07/22 04:38:40;;;;;;;8.52;1.98;;;;;;;;;;4976631;28;20035;-73
2022/07/22 04:41:08;;;;;;;5.38;1.65;;;;;;;;;;4968562;28;20720;-70
2022/07/22 04:43:33;;;;;;;5.57;1.90;;;;;;;;;;5005522;28;20038;-70
2022/07/22 04:46:01;;;;;;;9.48;2.28;;;;;;;;;;4976020;28;20042;-68
2022/07/22 04:48:26;;;;;;;6.22;1.80;;;;;;;;;;4968880;28;20038;-70
2022/07/22 04:50:51;;;;;;;10.13;1.80;;;;;;;;;;4978227;28;20041;-70
2022/07/22 04:53:16;;;;;;;6.40;2.10;;;;;;;;;;4975168;28;20069;-70
2022/07/22 04:55:47;;;;;;;5.75;1.83;;;;;;;;;;4975304;28;20589;-71
2022/07/22 04:58:12;;;;;;;6.38;1.83;;;;;;;;;;4973531;28;20034;-71
2022/07/22 05:00:37;;;;;;;5.88;2.00;;;;;;;;;;4973062;28;20035;-70
2022/07/22 05:03:05;;;;;;;8.77;2.22;;;;;;;;;;4959847;28;20035;-69
2022/07/22 05:05:30;;;;;;;10.93;1.90;;;;;;;;;;4975869;28;20034;-71
2022/07/22 05:07:58;;;;;;;5.30;1.70;;;;;;;;;;4964160;28;20038;-72
2022/07/22 05:10:23;;;;;;;6.45;2.05;;;;;;;;;;4969882;28;20043;-70
2022/07/22 05:12:48;;;;;;;7.22;2.05;;;;;;;;;;4972643;28;20577;-70
2022/07/22 05:15:14;;;;;;;4.47;1.90;;;;;;;;;;4991049;28;20034;-71
2022/07/22 05:17:39;;;;;;;6.55;1.90;;;;;;;;;;4974724;28;20038;-70
2022/07/22 05:20:07;;;;;;;7.50;1.73;;;;;;;;;;4977137;28;20785;-70
2022/07/22 05:22:33;;;;;;;7.60;1.80;;;;;;;;;;4973185;28;20050;-69
2022/07/22 05:24:58;;;;;;;5.95;1.98;;;;;;;;;;4978931;28;20030;-71
2022/07/22 05:27:23;;;;;;;5.43;1.80;;;;;;;;;;4977644;28;20595;-71
2022/07/22 05:29:49;;;;;;;6.38;1.92;;;;;;;;;;4959561;28;20118;-70
2022/07/22 05:32:14;;;;;;;6.07;1.90;;;;;;;;;;4972149;28;20062;-70
2022/07/22 05:34:40;;;;;;;8.95;1.60;;;;;;;;;;4975029;28;20542;-70
2022/07/22 05:37:05;;;;;;;6.45;1.63;;;;;;;;;;4970167;28;20038;-72
2022/07/22 05:39:30;;;;;;;7.68;1.92;;;;;;;;;;4969851;28;20050;-71
2022/07/22 05:41:58;;;;;;;3.90;1.45;;;;;;;;;;4978001;28;20034;-71
2022/07/22 05:44:25;;;;;;;8.52;1.90;;;;;;;;;;4975650;28;20030;-71
2022/07/22 05:46:50;;;;;;;5.10;1.80;;;;;;;;;;4995200;28;20043;-71
2022/07/22 05:49:16;;;;;;;5.38;1.50;;;;;;;;;;4978292;28;20038;-72
2022/07/22 05:51:43;;;;;;;7.68;2.00;;;;;;;;;;4984204;28;20105;-71
2022/07/22 05:54:09;;;;;;;5.93;1.80;;;;;;;;;;4976270;28;20395;-70
2022/07/22 05:56:34;;;;;;;6.03;1.73;;;;;;;;;;4980278;28;20037;-70
2022/07/22 05:59:00;;;;;;;9.02;1.35;;;;;;;;;;4971355;28;20038;-71
2022/07/22 06:01:25;;;;;;;4.60;1.55;;;;;;;;;;4967983;28;20053;-70
2022/07/22 06:03:53;;;;;;;4.78;1.58;;;;;;;;;;4976117;28;20117;-70
2022/07/22 06:06:21;;;;;;;6.65;1.48;;;;;;;;;;4958283;28;20073;-69
2022/07/22 06:08:47;;;;;;;4.20;1.52;;;;;;;;;;4962824;28;20061;-70
2022/07/22 06:11:13;;;;;;;3.67;1.42;;;;;;;;;;4965324;28;20149;-71
2022/07/22 06:13:38;;;;;;;4.00;1.40;;;;;;;;;;4962121;28;20082;-71
2022/07/22 06:16:03;;;;;;;3.92;1.70;;;;;;;;;;4962637;28;20060;-72
2022/07/22 06:18:29;;;;;;;7.32;1.67;;;;;;;;;;4937959;28;20054;-75
2022/07/22 06:20:54;;;;;;;4.95;1.83;;;;;;;;;;4936400;28;20042;-76
2022/07/22 06:23:22;;;;;;;4.88;1.45;;;;;;;;;;4949994;28;20135;-74
2022/07/22 06:25:47;;;;;;;5.70;1.30;;;;;;;;;;4932885;28;20220;-74
2022/07/22 06:28:12;;;;;;;5.00;1.33;;;;;;;;;;4935643;28;20631;-74
2022/07/22 06:30:38;;;;;;;4.38;1.30;;;;;;;;;;4950822;28;20149;-74
2022/07/22 06:33:04;;;;;;;3.72;1.33;;;;;;;;;;4933580;28;20030;-74
2022/07/22 06:35:30;;;;;;;5.30;1.73;;;;;;;;;;4933640;28;20065;-74
2022/07/22 06:37:55;;;;;;;4.75;1.33;;;;;;;;;;4936286;28;20454;-74
2022/07/22 06:40:21;;;;;;;5.18;1.30;;;;;;;;;;4933458;28;20039;-74
2022/07/22 06:42:48;;;;;;;5.22;1.40;;;;;;;;;;4934592;28;20049;-75
2022/07/22 06:45:13;;;;;;;5.75;1.42;;;;;;;;;;4932599;28;20030;-74
2022/07/22 06:47:38;;;;;;;4.57;1.30;;;;;;;;;;4948528;28;20050;-75
2022/07/22 06:50:05;;;;;;;5.63;1.40;;;;;;;;;;4934407;28;20035;-74
2022/07/22 06:52:30;;;;;;;3.38;1.10;;;;;;;;;;4934164;28;20097;-73
2022/07/22 06:54:56;;;;;;;6.05;1.10;;;;;;;;;;4941688;28;20833;-74
2022/07/22 06:57:21;;;;;;;6.82;1.20;;;;;;;;;;4939196;28;20219;-75
2022/07/22 06:59:47;;;;;;;3.65;0.88;;;;;;;;;;4935129;28;20268;-73
2022/07/22 07:02:14;;;;;;;4.85;1.20;;;;;;;;;;4938327;28;20559;-73
2022/07/22 07:04:39;;;;;;;6.18;1.20;;;;;;;;;;4935439;28;21024;-75
2022/07/22 07:07:05;;;;;;;5.03;1.30;;;;;;;;;;4942559;28;20043;-75
2022/07/22 07:09:30;;;;;;;4.63;1.30;;;;;;;;;;4941678;28;20227;-74
2022/07/22 07:11:58;;;;;;;4.38;1.13;;;;;;;;;;4932934;28;20051;-74
2022/07/22 07:14:23;;;;;;;4.45;1.23;;;;;;;;;;4935585;28;20143;-75
2022/07/22 07:16:49;;;;;;;3.70;1.40;;;;;;;;;;4936277;28;20038;-75
2022/07/22 07:19:15;;;;;;;4.13;1.25;;;;;;;;;;4953471;28;20045;-74
2022/07/22 07:21:40;;;;;;;5.13;1.20;;;;;;;;;;4942566;28;20043;-74
2022/07/22 07:24:06;;;;;;;6.93;1.40;;;;;;;;;;4937898;28;20035;-74
2022/07/22 07:26:31;;;;;;;7.60;1.48;;;;;;;;;;4920327;28;20037;-75
2022/07/22 07:28:57;;;;;;;4.03;1.38;;;;;;;;;;4932980;28;20046;-76
2022/07/22 07:31:22;;;;;;;4.55;1.10;;;;;;;;;;4932644;28;20031;-76
2022/07/22 07:33:47;;;;;;;4.15;1.30;;;;;;;;;;4929974;28;20094;-77
2022/07/22 07:36:13;;;;;;;4.70;1.20;;;;;;;;;;4947185;28;20038;-76
2022/07/22 07:38:38;;;;;;;3.67;1.17;;;;;;;;;;4930865;28;20228;-75
2022/07/22 07:41:04;;;;;;;5.35;1.40;;;;;;;;;;4931521;28;20893;-77
2022/07/22 07:43:31;;;;;;;4.75;1.10;;;;;;;;;;4931270;28;20890;-75
2022/07/22 07:45:56;;;;;;;3.25;1.10;;;;;;;;;;4931764;28;20086;-76
2022/07/22 07:48:23;;;;;;;4.03;0.98;;;;;;;;;;4936455;28;20164;-75
2022/07/22 07:50:48;;;;;;;5.60;1.27;;;;;;;;;;4936911;28;20066;-75
2022/07/22 07:53:17;;;;;;;5.22;0.98;;;;;;;;;;4932188;28;20128;-75
2022/07/22 07:55:43;;;;;;;4.95;1.25;;;;;;;;;;4932550;28;20050;-74
2022/07/22 07:58:08;;;;;;;3.88;1.02;;;;;;;;;;4931709;28;20049;-75
2022/07/22 08:00:39;;;;;;;3.13;1.00;;;;;;;;;;4932427;28;20226;-75
2022/07/22 08:03:04;;;;;;;6.07;0.90;;;;;;;;;;4923001;28;20051;-74
2022/07/22 08:05:30;;;;;;;5.40;1.13;;;;;;;;;;4939145;28;20292;-71
2022/07/22 08:07:56;;;;;;;5.15;1.10;;;;;;;;;;4932396;28;20037;-73
2022/07/22 08:10:22;;;;;;;7.38;1.05;;;;;;;;;;4933347;28;21031;-69
2022/07/22 08:12:48;;;;;;;4.68;0.90;;;;;;;;;;4935723;28;20050;-71
2022/07/22 08:15:15;;;;;;;3.75;0.80;;;;;;;;;;4933481;28;20053;-72
2022/07/22 08:17:41;;;;;;;6.45;1.20;;;;;;;;;;4935134;28;21039;-73
2022/07/22 08:20:07;;;;;;;3.30;0.90;;;;;;;;;;4935439;28;20067;-74
2022/07/22 08:22:33;;;;;;;5.47;1.23;;;;;;;;;;4934486;28;20643;-70
2022/07/22 08:24:58;;;;;;;2.55;0.70;;;;;;;;;;4937671;28;20043;-71
2022/07/22 08:27:24;;;;;;;4.20;0.82;;;;;;;;;;4934933;28;20058;-70
2022/07/22 08:29:49;;;;;;;8.10;1.10;;;;;;;;;;4935468;28;20042;-70
2022/07/22 08:32:14;;;;;;;4.20;1.00;;;;;;;;;;4933787;28;20041;-72
2022/07/22 08:34:40;;;;;;;5.47;1.13;;;;;;;;;;4921158;28;20043;-70
2022/07/22 08:37:05;;;;;;;4.65;1.10;;;;;;;;;;4937177;28;20039;-70
2022/07/22 08:39:31;;;;;;;5.18;1.05;;;;;;;;;;4935998;28;20031;-70
2022/07/22 08:41:57;;;;;;;5.13;1.00;;;;;;;;;;4933769;28;20089;-67
2022/07/22 08:44:28;;;;;;;4.72;1.10;;;;;;;;;;4935808;28;20110;-70
2022/07/22 08:46:53;;;;;;;3.42;1.02;;;;;;;;;;4932976;28;20656;-70
2022/07/22 08:49:21;;;;;;;5.32;0.98;;;;;;;;;;4946747;28;20146;-70
2022/07/22 08:51:46;;;;;;;4.13;0.93;;;;;;;;;;4949624;28;20038;-70
2022/07/22 08:54:11;;;;;;;2.88;0.90;;;;;;;;;;4934830;28;20077;-70
2022/07/22 08:56:38;;;;;;;2.13;0.90;;;;;;;;;;4936577;28;20039;-71
2022/07/22 08:59:03;;;;;;;3.17;1.00;;;;;;;;;;4944804;28;20229;-71
2022/07/22 09:01:31;;;;;;;4.90;0.95;;;;;;;;;;4940376;28;20047;-70
2022/07/22 09:03:57;;;;;;;4.28;1.10;;;;;;;;;;4937840;28;20031;-70
2022/07/22 09:06:23;;;;;;;5.38;1.15;;;;;;;;;;4956273;28;20042;-70
2022/07/22 09:08:51;;;;;;;4.88;1.02;;;;;;;;;;4944153;28;20027;-70
2022/07/22 09:11:22;;;;;;;2.95;0.98;;;;;;;;;;4951061;28;20046;-69
2022/07/22 09:13:48;;;;;;;7.80;1.00;;;;;;;;;;4950567;28;20133;-69
2022/07/22 09:16:13;;;;;;;5.18;1.00;;;;;;;;;;4936876;28;20043;-69
2022/07/22 09:18:48;;;;;;;4.63;0.80;;;;;;;;;;4940693;28;20030;-69
2022/07/22 09:21:14;;;;;;;4.35;0.85;;;;;;;;;;4938739;28;20480;-70
2022/07/22 09:23:41;;;;;;;5.03;1.00;;;;;;;;;;4936845;28;20031;-70
2022/07/22 09:26:06;;;;;;;4.65;1.00;;;;;;;;;;4937284;28;20048;-69
2022/07/22 09:28:32;;;;;;;3.97;0.90;;;;;;;;;;4937609;28;20042;-70
2022/07/22 09:30:59;;;;;;;3.58;0.80;;;;;;;;;;4939696;28;20070;-70
2022/07/22 09:33:26;;;;;;;4.55;0.88;;;;;;;;;;4941987;28;20070;-70
2022/07/22 09:35:51;;;;;;;7.25;0.90;;;;;;;;;;4936423;28;20574;-70
2022/07/22 09:38:18;;;;;;;2.70;0.73;;;;;;;;;;4936107;28;20039;-70
2022/07/22 09:40:45;;;;;;;4.13;1.00;;;;;;;;;;4937112;28;20510;-70
2022/07/22 09:43:17;;;;;;;6.60;1.00;;;;;;;;;;4938372;28;20035;-70
2022/07/22 09:45:59;;;;;;;3.70;1.08;;;;;;;;;;4931573;28;20069;-70
2022/07/22 09:48:24;;;;;;;;;;;;;;;;;;4932312;28;20237;-70
2022/07/22 09:50:50;;;;;;;1.38;0.90;;;;;;;;;;4932376;28;19918;-70
2022/07/22 09:53:19;;;;;;;3.70;1.00;;;;;;;;;;4933235;28;20082;-69
2022/07/22 09:55:46;;;;;;;4.88;1.10;;;;;;;;;;4937492;28;20813;-70
2022/07/22 09:58:12;;;;;;;4.40;1.08;;;;;;;;;;4946064;28;20093;-73
2022/07/22 10:00:38;;;;;;;5.93;1.50;;;;;;;;;;4947005;28;20125;-70
2022/07/22 10:03:05;;;;;;;2.40;0.93;;;;;;;;;;4947864;28;20031;-71
2022/07/22 10:05:31;;;;;;;3.65;1.10;;;;;;;;;;4944650;28;20792;-70
2022/07/22 10:07:57;;;;;;;5.18;1.33;;;;;;;;;;4949848;28;20035;-71
2022/07/22 10:10:26;;;;;;;4.53;1.27;;;;;;;;;;4953676;28;20030;-71
2022/07/22 10:12:53;;;;;;;6.10;1.25;;;;;;;;;;4954870;28;20395;-69
2022/07/22 10:15:18;;;;;;;5.38;1.38;;;;;;;;;;4948547;28;20063;-71
2022/07/22 10:17:45;;;;;;;7.03;1.63;;;;;;;;;;4950569;28;20038;-70
2022/07/22 10:20:11;;;;;;;6.07;1.40;;;;;;;;;;4943191;28;20058;-72
2022/07/22 10:22:43;;;;;;;4.25;1.40;;;;;;;;;;4945521;28;20752;-69
2022/07/22 10:25:10;;;;;;;4.43;1.40;;;;;;;;;;4960088;28;20126;-71
2022/07/22 10:27:45;;;;;;;3.13;1.20;;;;;;;;;;4949057;28;20089;-70
2022/07/22 10:30:13;;;;;;;4.28;1.10;;;;;;;;;;4947652;28;20118;-71
2022/07/22 10:32:40;;;;;;;7.72;1.17;;;;;;;;;;4947869;28;20101;-70
2022/07/22 10:35:11;;;;;;;4.45;1.20;;;;;;;;;;4948148;28;20178;-71
2022/07/22 10:37:40;;;;;;;5.88;1.50;;;;;;;;;;4942358;28;20034;-71
2022/07/22 10:40:12;;;;;;;4.30;1.30;;;;;;;;;;4945262;28;20035;-70
2022/07/22 10:42:58;;;;;;;5.15;1.05;;;;;;;;;;4946582;28;20046;-71
2022/07/22 10:45:25;;;;;;;4.90;1.17;;;;;;;;;;4960968;28;20515;-71
2022/07/22 10:47:53;;;;;;;5.40;1.23;;;;;;;;;;4950822;28;20053;-71
2022/07/22 10:50:37;;;;;;;2.75;1.30;;;;;;;;;;4953071;28;20058;-70
2022/07/22 10:53:13;;;;;;;3.38;1.15;;;;;;;;;;4956331;28;22439;-71
2022/07/22 10:56:00;;;;;;;4.97;1.08;;;;;;;;;;4953881;28;20058;-71
2022/07/22 10:58:31;;;;;;;4.22;1.13;;;;;;;;;;4947507;28;20042;-70
2022/07/22 11:00:58;;;;;;;6.43;1.10;;;;;;;;;;4936334;28;20027;-73
2022/07/22 11:03:26;;;;;;;2.42;0.75;;;;;;;;;;4946883;28;20137;-70
2022/07/22 11:05:52;;;;;;;6.20;1.20;;;;;;;;;;4945641;28;20033;-71
2022/07/22 11:08:18;;;;;;;4.00;1.30;;;;;;;;;;4945619;28;20083;-71
2022/07/22 11:10:48;;;;;;;4.10;0.90;;;;;;;;;;4946824;28;20035;-71
2022/07/22 11:13:29;;;;;;;2.88;0.80;;;;;;;;;;4944190;28;20039;-70
2022/07/22 11:15:54;;;;;;;5.22;1.20;;;;;;;;;;4949197;28;20041;-72
2022/07/22 11:18:20;;;;;;;4.68;0.90;;;;;;;;;;4964634;28;20421;-71
2022/07/22 11:20:45;;;;;;;2.75;0.80;;;;;;;;;;4950411;28;20084;-71
2022/07/22 11:23:10;;;;;;;5.72;1.02;;;;;;;;;;4952575;28;20059;-71
2022/07/22 11:25:36;;;;;;;3.28;1.05;;;;;;;;;;4948954;28;20030;-72
2022/07/22 11:28:03;;;;;;;3.45;0.90;;;;;;;;;;4943293;28;20031;-70
2022/07/22 11:30:29;;;;;;;2.65;1.10;;;;;;;;;;4956016;28;20081;-70
2022/07/22 11:32:56;;;;;;;5.05;1.10;;;;;;;;;;4960884;28;20031;-71
2022/07/22 11:35:21;;;;;;;2.92;0.98;;;;;;;;;;4950159;28;20046;-71
2022/07/22 11:37:54;;;;;;;2.65;0.90;;;;;;;;;;4935930;28;20061;-71
2022/07/22 11:40:20;;;;;;;2.90;0.90;;;;;;;;;;4936286;28;20113;-70
2022/07/22 11:42:45;;;;;;;3.15;0.70;;;;;;;;;;4936153;28;20039;-71
2022/07/22 11:45:10;;;;;;;2.63;0.75;;;;;;;;;;4936496;28;20137;-70
2022/07/22 11:47:36;;;;;;;3.88;0.80;;;;;;;;;;4939398;28;20713;-70
2022/07/22 11:50:02;;;;;;;2.67;0.80;;;;;;;;;;4946888;28;20610;-70
2022/07/22 11:52:27;;;;;;;2.15;0.75;;;;;;;;;;4950348;28;20037;-69
2022/07/22 11:54:53;;;;;;;3.03;0.80;;;;;;;;;;4958556;28;20101;-71
2022/07/22 11:57:18;;;;;;;3.53;0.93;;;;;;;;;;4954631;28;20092;-70
2022/07/22 11:59:48;;;;;;;3.80;0.80;;;;;;;;;;4951165;28;20054;-70
2022/07/22 12:02:14;;;;;;;2.33;0.85;;;;;;;;;;4961065;28;22616;-70
2022/07/22 12:04:40;;;;;;;2.80;0.80;;;;;;;;;;4943527;28;20042;-70
2022/07/22 12:07:06;;;;;;;3.13;0.85;;;;;;;;;;4945881;28;20035;-71
2022/07/22 12:09:36;;;;;;;3.13;0.75;;;;;;;;;;4957797;28;20027;-70
2022/07/22 12:12:02;;;;;;;4.80;0.70;;;;;;;;;;4948243;28;20543;-70
2022/07/22 12:14:28;;;;;;;2.13;0.77;;;;;;;;;;4943234;28;20082;-69
2022/07/22 12:17:00;;;;;;;3.58;0.80;;;;;;;;;;4954562;28;22086;-70
2022/07/22 12:19:29;;;;;;;2.85;0.82;;;;;;;;;;4957756;28;20547;-70
2022/07/22 12:21:55;;;;;;;2.35;0.77;;;;;;;;;;4958799;28;20097;-70
2022/07/22 12:24:28;;;;;;;2.88;0.80;;;;;;;;;;4961054;28;20037;-71
2022/07/22 12:26:54;;;;;;;4.57;0.98;;;;;;;;;;4969382;28;20049;-70
2022/07/22 12:29:21;;;;;;;2.83;0.90;;;;;;;;;;4966784;28;20043;-72
2022/07/22 12:31:48;;;;;;;3.92;1.00;;;;;;;;;;4970283;28;20047;-72
2022/07/22 12:34:14;;;;;;;5.90;1.00;;;;;;;;;;4959766;28;20085;-71
2022/07/22 12:36:44;;;;;;;3.38;1.00;;;;;;;;;;4962406;28;20030;-70
2022/07/22 12:39:13;;;;;;;6.70;0.90;;;;;;;;;;4957797;28;20038;-70
2022/07/22 12:41:49;;;;;;;3.05;0.80;;;;;;;;;;4956932;28;20130;-71
2022/07/22 12:44:18;;;;;;;3.80;1.00;;;;;;;;;;4959151;28;20790;-71
2022/07/22 12:46:45;;;;;;;3.50;0.88;;;;;;;;;;4957699;28;20196;-69
2022/07/22 12:49:11;;;;;;;5.90;0.90;;;;;;;;;;4955327;28;20038;-72
2022/07/22 12:51:36;;;;;;;3.85;0.80;;;;;;;;;;4963555;28;20488;-71
2022/07/22 12:54:01;;;;;;;3.25;0.93;;;;;;;;;;4967832;28;20587;-71
2022/07/22 12:56:27;;;;;;;3.40;0.90;;;;;;;;;;4974416;28;20141;-71
2022/07/22 12:58:52;;;;;;;3.55;1.08;;;;;;;;;;4954515;28;20058;-69
2022/07/22 13:01:17;;;;;;;3.72;0.98;;;;;;;;;;4960485;28;20787;-70
2022/07/22 13:03:42;;;;;;;5.80;1.30;;;;;;;;;;4948385;28;20141;-69
2022/07/22 13:06:10;;;;;;;5.70;1.20;;;;;;;;;;4949628;28;20125;-69
2022/07/22 13:08:35;;;;;;;5.38;1.00;;;;;;;;;;4952088;28;20031;-69
2022/07/22 13:11:01;;;;;;;4.38;0.90;;;;;;;;;;4949344;28;20042;-69
2022/07/22 13:13:26;;;;;;;2.40;0.80;;;;;;;;;;4942259;28;21740;-69
2022/07/22 13:15:54;;;;;;;4.05;0.95;;;;;;;;;;4954636;28;20027;-72
2022/07/22 13:18:20;;;;;;;2.85;0.90;;;;;;;;;;4968009;28;20630;-72
2022/07/22 13:20:46;;;;;;;5.47;1.02;;;;;;;;;;4981103;28;20035;-73
2022/07/22 13:23:11;;;;;;;3.17;0.70;;;;;;;;;;4979319;28;20440;-72
2022/07/22 13:25:37;;;;;;;2.20;0.80;;;;;;;;;;4971876;28;20118;-72
2022/07/22 13:28:02;;;;;;;2.58;0.75;;;;;;;;;;4959117;28;20113;-73
2022/07/22 13:30:28;;;;;;;5.43;0.70;;;;;;;;;;4957653;28;20058;-73
2022/07/22 13:32:55;;;;;;;2.17;0.60;;;;;;;;;;4977419;28;20031;-74
2022/07/22 13:35:21;;;;;;;3.55;0.80;;;;;;;;;;4968001;28;20077;-72
2022/07/22 13:37:46;;;;;;;2.85;0.80;;;;;;;;;;4972482;28;20574;-71
2022/07/22 13:40:12;;;;;;;3.30;0.90;;;;;;;;;;4964203;28;20485;-72
2022/07/22 13:42:37;;;;;;;3.38;0.73;;;;;;;;;;4965322;28;20053;-72
2022/07/22 13:45:04;;;;;;;2.75;0.80;;;;;;;;;;4944443;28;20035;-73
2022/07/22 13:47:29;;;;;;;3.60;0.80;;;;;;;;;;4957690;28;20583;-74
2022/07/22 13:49:57;;;;;;;1.50;0.80;;;;;;;;;;4952262;28;20049;-72
2022/07/22 13:52:25;;;;;;;2.55;0.82;;;;;;;;;;4954174;28;20039;-72
2022/07/22 13:54:55;;;;;;;5.13;1.00;;;;;;;;;;4963594;28;20039;-72
2022/07/22 13:57:20;;;;;;;4.15;1.00;;;;;;;;;;4952792;28;20296;-73
2022/07/22 13:59:48;;;;;;;3.47;0.90;;;;;;;;;;4948054;28;20046;-73
2022/07/22 14:02:16;;;;;;;2.97;0.70;;;;;;;;;;4944924;28;20031;-72
2022/07/22 14:04:41;;;;;;;2.17;0.75;;;;;;;;;;4941580;28;20823;-74
2022/07/22 14:07:07;;;;;;;4.70;1.20;;;;;;;;;;4938119;28;20937;-71
2022/07/22 14:09:32;;;;;;;3.65;0.80;;;;;;;;;;4933075;28;20890;-71
2022/07/22 14:11:58;;;;;;;1.45;0.80;;;;;;;;;;4951040;28;20038;-70
2022/07/22 14:14:26;;;;;;;4.13;0.80;;;;;;;;;;4990828;28;20038;-69
2022/07/22 14:16:51;;;;;;;2.95;0.70;;;;;;;;;;4988418;28;20039;-69
2022/07/22 14:19:19;;;;;;;2.25;0.75;;;;;;;;;;4978296;28;20110;-70
2022/07/22 14:21:45;;;;;;;2.90;0.80;;;;;;;;;;4971274;28;20034;-72
2022/07/22 14:24:11;;;;;;;4.68;1.08;;;;;;;;;;4968206;28;20045;-70
2022/07/22 14:26:37;;;;;;;3.40;0.70;;;;;;;;;;4973779;28;20877;-71
2022/07/22 14:29:03;;;;;;;4.57;0.80;;;;;;;;;;4972311;28;20038;-70
2022/07/22 14:31:28;;;;;;;3.63;0.80;;;;;;;;;;4969348;28;20037;-69
2022/07/22 14:33:54;;;;;;;4.07;0.73;;;;;;;;;;4981994;28;20134;-69
2022/07/22 14:36:21;;;;;;;2.70;0.80;;;;;;;;;;4969099;28;20048;-69
2022/07/22 14:38:47;;;;;;;5.15;0.93;;;;;;;;;;4974242;28;20108;-71